createdAt,value
2017-12-27T00:01:30.297Z,-0.40
2017-12-27T00:07:04.063Z,-0.40
2017-12-27T00:12:38.038Z,-0.50
2017-12-27T00:18:11.874Z,-0.50
2017-12-27T00:23:45.767Z,-0.50
2017-12-27T00:29:25.061Z,-0.50
2017-12-27T00:34:55.173Z,-0.50
2017-12-27T00:40:23.375Z,-0.50
2017-12-27T00:45:51.550Z,-0.40
2017-12-27T00:51:20.666Z,-0.40
2017-12-27T00:56:48.881Z,-0.40
2017-12-27T01:02:17.071Z,-0.30
2017-12-27T01:07:45.263Z,-0.30
2017-12-27T01:13:13.463Z,-0.30
2017-12-27T01:18:41.673Z,-0.20
2017-12-27T01:24:09.858Z,-0.20
2017-12-27T01:29:38.062Z,-0.20
2017-12-27T01:35:18.384Z,-0.30
2017-12-27T01:40:46.566Z,-0.30
2017-12-27T01:46:14.772Z,-0.30
2017-12-27T01:51:42.972Z,-0.30
2017-12-27T01:57:11.171Z,-0.30
2017-12-27T02:02:40.883Z,-0.30
2017-12-27T02:08:09.098Z,-0.30
2017-12-27T02:13:37.277Z,-0.30
2017-12-27T02:19:05.457Z,-0.40
2017-12-27T02:24:33.652Z,-0.40
2017-12-27T02:30:01.866Z,-0.40
2017-12-27T02:35:30.089Z,-0.50
2017-12-27T02:40:58.518Z,-0.50
2017-12-27T02:46:31.666Z,-0.60
2017-12-27T02:51:59.890Z,-0.70
2017-12-27T02:57:33.932Z,-0.70
2017-12-27T03:03:02.132Z,-0.80
2017-12-27T03:08:30.329Z,-0.80
2017-12-27T03:14:00.225Z,-1.00
2017-12-27T03:19:28.434Z,-1.00
2017-12-27T03:24:56.935Z,-1.00
2017-12-27T03:30:25.128Z,-1.00
2017-12-27T03:35:53.356Z,-1.00
2017-12-27T03:41:34.353Z,-1.10
2017-12-27T03:47:02.547Z,-1.10
2017-12-27T03:52:31.693Z,-1.10
2017-12-27T03:57:59.888Z,-1.10
2017-12-27T04:03:29.840Z,-1.20
2017-12-27T04:08:59.106Z,-1.20
2017-12-27T04:14:28.036Z,-1.20
2017-12-27T04:20:05.445Z,-1.30
2017-12-27T04:25:33.671Z,-1.30
2017-12-27T04:31:03.831Z,-1.30
2017-12-27T04:36:32.188Z,-1.30
2017-12-27T04:42:15.638Z,-1.20
2017-12-27T04:47:43.832Z,-1.20
2017-12-27T04:53:29.888Z,-1.20
2017-12-27T04:58:58.076Z,-1.20
2017-12-27T05:04:26.502Z,-1.20
2017-12-27T05:09:54.716Z,-1.20
2017-12-27T05:15:22.924Z,-1.20
2017-12-27T05:20:52.085Z,-1.20
2017-12-27T05:26:20.295Z,-1.10
2017-12-27T05:31:48.486Z,-1.10
2017-12-27T05:37:16.743Z,-1.10
2017-12-27T05:42:44.954Z,-1.10
2017-12-27T05:48:13.151Z,-1.10
2017-12-27T05:53:41.366Z,-1.00
2017-12-27T05:59:09.566Z,-1.00
2017-12-27T06:04:37.763Z,-1.00
2017-12-27T06:10:05.952Z,-1.10
2017-12-27T06:15:34.910Z,-1.10
2017-12-27T06:21:03.136Z,-1.10
2017-12-27T06:26:31.355Z,-1.10
2017-12-27T06:31:59.579Z,-1.10
2017-12-27T06:37:29.800Z,-1.00
2017-12-27T06:42:58.791Z,-1.00
2017-12-27T06:48:27.785Z,-0.90
2017-12-27T06:53:57.498Z,-0.90
2017-12-27T06:59:26.512Z,-0.90
2017-12-27T07:04:56.917Z,-0.80
2017-12-27T07:10:25.120Z,-0.80
2017-12-27T07:15:53.317Z,-0.70
2017-12-27T07:21:22.291Z,-0.60
2017-12-27T07:26:50.492Z,-0.60
2017-12-27T07:32:18.708Z,-0.50
2017-12-27T07:37:46.909Z,-0.50
2017-12-27T07:43:15.853Z,-0.40
2017-12-27T07:48:44.865Z,-0.30
2017-12-27T07:54:27.518Z,-0.40
2017-12-27T07:59:55.741Z,-0.30
2017-12-27T08:05:23.929Z,-0.20
2017-12-27T08:10:52.106Z,-0.10
2017-12-27T08:16:22.227Z,0.00
2017-12-27T08:21:50.412Z,0.00
2017-12-27T08:27:18.606Z,0.00
2017-12-27T08:32:46.781Z,0.10
2017-12-27T08:38:14.983Z,0.20
2017-12-27T08:43:43.175Z,0.40
2017-12-27T08:49:12.126Z,0.60
2017-12-27T08:54:41.064Z,0.70
2017-12-27T09:00:10.026Z,0.90
2017-12-27T09:05:38.222Z,0.90
2017-12-27T09:11:07.164Z,1.20
2017-12-27T09:16:36.124Z,1.40
2017-12-27T09:22:29.688Z,1.30
2017-12-27T09:27:57.926Z,1.60
2017-12-27T09:33:27.262Z,1.80
2017-12-27T09:38:56.382Z,1.80
2017-12-27T09:44:24.566Z,1.90
2017-12-27T09:49:52.758Z,2.00
2017-12-27T09:55:21.756Z,2.20
2017-12-27T10:00:50.719Z,2.20
2017-12-27T10:06:18.918Z,2.40
2017-12-27T10:11:47.089Z,2.60
2017-12-27T10:17:16.057Z,2.90
2017-12-27T10:22:44.252Z,2.90
2017-12-27T10:28:22.403Z,3.20
2017-12-27T10:33:51.362Z,3.40
2017-12-27T10:39:19.568Z,3.40
2017-12-27T10:44:47.780Z,3.50
2017-12-27T10:50:16.752Z,3.60
2017-12-27T10:55:44.928Z,3.60
2017-12-27T11:01:13.093Z,3.60
2017-12-27T11:06:41.294Z,3.60
2017-12-27T11:12:09.489Z,3.60
2017-12-27T11:17:46.113Z,3.60
2017-12-27T11:23:15.061Z,3.40
2017-12-27T11:28:44.079Z,3.40
2017-12-27T11:34:27.015Z,3.30
2017-12-27T11:39:55.305Z,3.30
2017-12-27T11:45:23.504Z,3.20
2017-12-27T11:50:52.498Z,2.80
2017-12-27T11:56:20.697Z,2.80
2017-12-27T12:01:48.904Z,2.70
2017-12-27T12:07:17.076Z,2.60
2017-12-27T12:12:45.257Z,2.70
2017-12-27T12:18:13.477Z,2.80
2017-12-27T12:23:41.685Z,3.00
2017-12-27T12:29:12.588Z,3.70
2017-12-27T12:34:41.624Z,3.70
2017-12-27T12:40:09.845Z,3.90
2017-12-27T12:45:38.037Z,4.00
2017-12-27T12:51:06.212Z,4.10
2017-12-27T12:56:34.394Z,4.20
2017-12-27T13:02:03.347Z,4.20
2017-12-27T13:07:31.539Z,4.20
2017-12-27T13:12:59.718Z,4.10
2017-12-27T13:18:27.919Z,4.00
2017-12-27T13:23:56.162Z,4.00
2017-12-27T13:29:24.329Z,3.90
2017-12-27T13:34:52.543Z,3.80
2017-12-27T13:40:20.739Z,3.70
2017-12-27T13:45:55.609Z,3.60
2017-12-27T13:51:23.811Z,3.60
2017-12-27T13:56:52.030Z,3.80
2017-12-27T14:02:20.253Z,3.40
2017-12-27T14:07:48.458Z,3.40
2017-12-27T14:13:16.691Z,3.40
2017-12-27T14:18:45.260Z,3.40
2017-12-27T14:24:31.932Z,3.30
2017-12-27T14:30:01.156Z,3.30
2017-12-27T14:35:28.387Z,3.30
2017-12-27T14:40:59.238Z,3.20
2017-12-27T14:46:27.477Z,3.10
2017-12-27T14:57:56.609Z,3.10
2017-12-27T15:03:25.744Z,3.00
2017-12-27T15:08:54.187Z,3.00
2017-12-27T15:14:26.445Z,2.90
2017-12-27T15:19:54.645Z,2.90
2017-12-27T15:25:25.149Z,2.90
2017-12-27T15:30:57.225Z,2.80
2017-12-27T15:36:25.488Z,2.90
2017-12-27T15:41:53.683Z,2.90
2017-12-27T15:47:23.810Z,2.90
2017-12-27T15:52:52.972Z,2.80
2017-12-27T15:58:21.145Z,2.70
2017-12-27T16:03:49.400Z,2.70
2017-12-27T16:09:18.541Z,2.60
2017-12-27T16:14:46.894Z,2.60
2017-12-27T16:20:18.670Z,2.60
2017-12-27T16:25:46.892Z,2.60
2017-12-27T16:31:15.121Z,2.50
2017-12-27T16:36:43.512Z,2.60
2017-12-27T16:42:11.696Z,2.60
2017-12-27T16:47:43.637Z,2.60
2017-12-27T16:53:11.827Z,2.60
2017-12-27T16:58:40.056Z,2.50
2017-12-27T17:04:09.025Z,2.40
2017-12-27T17:09:39.193Z,2.40
2017-12-27T17:15:07.374Z,2.40
2017-12-27T17:20:35.648Z,2.40
2017-12-27T17:26:04.101Z,2.40
2017-12-27T17:31:34.023Z,2.40
2017-12-27T17:37:03.077Z,2.40
2017-12-27T17:42:37.011Z,2.50
2017-12-27T17:48:05.202Z,2.50
2017-12-27T17:53:34.160Z,2.50
2017-12-27T17:59:02.405Z,2.50
2017-12-27T18:04:30.581Z,2.60
2017-12-27T18:10:00.722Z,2.80
2017-12-27T18:15:30.916Z,2.70
2017-12-27T18:21:01.304Z,2.80
2017-12-27T18:26:34.220Z,2.80
2017-12-27T18:32:03.173Z,2.80
2017-12-27T18:37:32.287Z,2.80
2017-12-27T18:43:12.550Z,2.90
2017-12-27T18:48:40.873Z,2.90
2017-12-27T18:54:09.088Z,2.90
2017-12-27T18:59:47.691Z,3.00
2017-12-27T19:05:20.203Z,3.00
2017-12-27T19:10:49.645Z,3.00
2017-12-27T19:16:29.328Z,3.00
2017-12-27T19:21:58.372Z,2.90
2017-12-27T19:27:27.434Z,2.90
2017-12-27T19:32:55.761Z,2.80
2017-12-27T19:38:24.066Z,2.60
2017-12-27T19:43:53.236Z,2.40
2017-12-27T19:49:21.407Z,2.30
2017-12-27T19:54:49.598Z,2.10
2017-12-27T20:00:18.560Z,1.80
2017-12-27T20:05:46.926Z,1.80
2017-12-27T20:11:16.084Z,1.70
2017-12-27T20:16:44.300Z,1.60
2017-12-27T20:22:12.612Z,1.50
2017-12-27T20:27:40.955Z,1.40
2017-12-27T20:33:09.331Z,1.30
2017-12-27T20:38:37.584Z,1.20
2017-12-27T20:44:05.921Z,1.20
2017-12-27T20:49:35.076Z,1.20
2017-12-27T20:55:03.475Z,1.20
2017-12-27T21:00:33.649Z,1.20
2017-12-27T21:06:02.837Z,1.20
2017-12-27T21:11:31.884Z,1.20
2017-12-27T21:17:00.098Z,1.20
2017-12-27T21:22:29.081Z,1.20
2017-12-27T21:27:57.316Z,1.20
2017-12-27T21:33:26.472Z,1.20
2017-12-27T21:38:54.916Z,1.20
2017-12-27T21:44:33.120Z,1.20
2017-12-27T21:50:02.080Z,1.20
2017-12-27T21:55:31.726Z,1.10
2017-12-27T22:01:05.740Z,1.10
2017-12-27T22:06:34.680Z,1.00
2017-12-27T22:12:04.405Z,1.10
2017-12-27T22:17:35.920Z,1.10
2017-12-27T22:23:04.169Z,1.10
2017-12-27T22:28:33.172Z,1.20
2017-12-27T22:34:01.379Z,1.10
2017-12-27T22:39:30.016Z,1.20
2017-12-27T22:44:58.286Z,1.20
2017-12-27T22:50:26.482Z,1.20
2017-12-27T22:55:55.444Z,1.20
2017-12-27T23:01:43.789Z,1.20
2017-12-27T23:07:11.990Z,1.20
2017-12-27T23:12:42.153Z,1.20
2017-12-27T23:18:10.357Z,1.20
2017-12-27T23:23:38.560Z,1.30
2017-12-27T23:29:07.885Z,1.30
2017-12-27T23:34:36.087Z,1.30
2017-12-27T23:40:04.269Z,1.30
2017-12-27T23:45:40.910Z,1.20
2017-12-27T23:51:09.081Z,1.20
2017-12-27T23:56:39.203Z,1.10
